createdAt,value
2023-04-02T00:00:04.581Z,14.30
2023-04-02T00:05:20.495Z,14.30
2023-04-02T00:10:26.802Z,14.20
2023-04-02T00:15:29.641Z,14.10
2023-04-02T00:20:42.820Z,14.10
2023-04-02T00:25:46.198Z,14.10
2023-04-02T00:30:53.764Z,14.10
2023-04-02T00:35:55.960Z,14.10
2023-04-02T00:41:06.127Z,14.10
2023-04-02T00:46:14.235Z,14.10
2023-04-02T00:51:16.932Z,14.20
2023-04-02T00:56:25.728Z,14.20
2023-04-02T01:01:29.386Z,14.20
2023-04-02T01:06:34.165Z,14.20
2023-04-02T01:11:36.207Z,14.30
2023-04-02T01:16:46.407Z,14.20
2023-04-02T01:22:03.540Z,14.40
2023-04-02T01:27:12.278Z,14.10
2023-04-02T01:32:17.072Z,14.10
2023-04-02T01:37:37.955Z,14.00
2023-04-02T01:42:46.099Z,14.00
2023-04-02T01:47:49.703Z,14.00
2023-04-02T01:52:54.226Z,13.90
2023-04-02T01:57:57.143Z,14.00
2023-04-02T02:03:00.369Z,14.00
2023-04-02T02:08:03.800Z,14.00
2023-04-02T02:13:06.731Z,14.00
2023-04-02T02:18:10.606Z,14.00
2023-04-02T02:23:13.585Z,14.00
2023-04-02T02:28:18.076Z,14.00
2023-04-02T02:33:32.864Z,13.90
2023-04-02T02:38:42.070Z,14.00
2023-04-02T02:43:49.504Z,13.70
2023-04-02T02:48:52.781Z,13.90
2023-04-02T02:53:57.897Z,13.90
2023-04-02T02:59:02.043Z,13.90
2023-04-02T03:04:05.284Z,13.70
2023-04-02T03:09:19.356Z,13.80
2023-04-02T03:14:44.954Z,13.80
2023-04-02T03:19:58.069Z,13.80
2023-04-02T03:25:19.864Z,13.80
2023-04-02T03:30:44.851Z,13.80
2023-04-02T03:36:07.888Z,13.70
2023-04-02T03:41:13.205Z,13.70
2023-04-02T03:46:23.142Z,13.70
2023-04-02T03:51:46.125Z,13.70
2023-04-02T03:56:49.084Z,13.70
2023-04-02T04:02:02.416Z,13.70
2023-04-02T04:07:06.202Z,13.70
2023-04-02T04:12:11.048Z,13.70
2023-04-02T04:17:35.498Z,13.70
2023-04-02T04:22:38.399Z,13.50
2023-04-02T04:28:07.642Z,16.70
2023-04-02T04:33:24.993Z,13.60
2023-04-02T04:38:40.740Z,13.60
2023-04-02T04:43:49.735Z,13.70
2023-04-02T04:49:02.508Z,13.60
2023-04-02T04:54:06.072Z,13.60
2023-04-02T04:59:24.399Z,13.60
2023-04-02T05:04:38.018Z,13.60
2023-04-02T05:09:44.050Z,13.60
2023-04-02T05:14:52.583Z,13.50
2023-04-02T05:19:58.748Z,13.70
2023-04-02T05:25:17.860Z,13.60
2023-04-02T05:30:20.744Z,13.60
2023-04-02T05:35:29.322Z,13.60
2023-04-02T05:40:36.338Z,13.60
2023-04-02T05:45:41.256Z,13.60
2023-04-02T05:50:49.739Z,13.70
2023-04-02T05:55:58.205Z,13.70
2023-04-02T06:01:12.697Z,13.70
2023-04-02T06:06:26.787Z,13.80
2023-04-02T06:11:37.185Z,13.80
2023-04-02T06:16:40.342Z,13.90
2023-04-02T06:21:44.134Z,13.90
2023-04-02T06:26:50.410Z,13.90
2023-04-02T06:31:57.324Z,14.00
2023-04-02T06:37:02.990Z,14.00
2023-04-02T06:42:06.235Z,14.10
2023-04-02T06:47:18.075Z,14.20
2023-04-02T06:52:22.891Z,14.20
2023-04-02T06:57:25.723Z,14.30
2023-04-02T07:02:35.610Z,14.60
2023-04-02T07:07:38.312Z,14.80
2023-04-02T07:12:43.832Z,14.80
2023-04-02T07:17:46.985Z,14.90
2023-04-02T07:22:49.974Z,14.80
2023-04-02T07:27:52.689Z,15.00
2023-04-02T07:32:54.810Z,15.00
2023-04-02T07:37:56.949Z,15.00
2023-04-02T07:42:59.129Z,15.20
2023-04-02T07:48:05.232Z,15.20
2023-04-02T07:53:08.768Z,15.30
2023-04-02T07:58:10.925Z,15.40
2023-04-02T08:03:13.387Z,15.50
2023-04-02T08:08:15.769Z,15.60
2023-04-02T08:13:18.599Z,15.80
2023-04-02T08:18:22.759Z,16.00
2023-04-02T08:23:25.460Z,16.00
2023-04-02T08:28:27.851Z,16.10
2023-04-02T08:33:30.557Z,16.20
2023-04-02T08:38:33.434Z,16.20
2023-04-02T08:43:41.872Z,16.30
2023-04-02T08:48:45.727Z,16.40
2023-04-02T08:53:50.275Z,16.50
2023-04-02T08:59:02.305Z,16.50
2023-04-02T09:04:07.002Z,16.60
2023-04-02T09:09:09.468Z,16.70
2023-04-02T09:14:20.748Z,16.70
2023-04-02T09:19:25.433Z,16.80
2023-04-02T09:24:27.559Z,16.80
2023-04-02T09:29:46.959Z,16.90
2023-04-02T09:34:49.359Z,16.90
2023-04-02T09:39:51.957Z,17.00
2023-04-02T09:45:11.867Z,17.10
2023-04-02T09:50:29.054Z,17.10
2023-04-02T10:00:32.160Z,16.80
2023-04-02T10:10:43.386Z,15.90
2023-04-02T10:15:53.141Z,15.50
2023-04-02T10:20:56.357Z,15.00
2023-04-02T10:26:08.858Z,14.70
2023-04-02T10:36:19.820Z,14.20
2023-04-02T10:41:27.002Z,14.00
2023-04-02T10:46:39.866Z,13.90
2023-04-02T10:51:50.421Z,13.80
2023-04-02T10:56:53.400Z,13.70
2023-04-02T11:01:58.076Z,13.60
2023-04-02T11:07:13.644Z,13.60
2023-04-02T11:17:20.838Z,13.50
2023-04-02T11:22:23.914Z,13.50
2023-04-02T11:27:27.352Z,13.50
2023-04-02T11:32:32.743Z,13.50
2023-04-02T11:37:38.280Z,13.50
2023-04-02T11:42:40.786Z,13.50
2023-04-02T11:47:42.944Z,13.40
2023-04-02T11:52:45.356Z,13.30
2023-04-02T11:58:06.213Z,13.30
2023-04-02T12:03:13.312Z,13.20
2023-04-02T12:08:34.989Z,13.20
2023-04-02T12:13:41.198Z,13.10
2023-04-02T12:18:44.544Z,13.10
2023-04-02T12:23:50.607Z,13.20
2023-04-02T12:28:52.737Z,13.20
2023-04-02T12:33:54.805Z,13.30
2023-04-02T12:38:57.824Z,13.30
2023-04-02T12:44:01.755Z,13.30
2023-04-02T12:49:05.530Z,13.20
2023-04-02T12:54:13.165Z,13.10
2023-04-02T12:59:23.974Z,13.10
2023-04-02T13:04:26.593Z,13.00
2023-04-02T13:09:34.944Z,12.90
2023-04-02T13:14:38.026Z,12.80
2023-04-02T13:19:40.226Z,12.80
2023-04-02T13:24:43.622Z,12.80
2023-04-02T13:29:46.692Z,12.80
2023-04-02T13:34:48.903Z,12.80
2023-04-02T13:39:50.959Z,12.70
2023-04-02T13:44:53.218Z,12.70
2023-04-02T13:49:55.257Z,12.70
2023-04-02T13:55:01.324Z,12.70
2023-04-02T14:00:04.877Z,12.60
2023-04-02T14:05:25.906Z,12.60
2023-04-02T14:10:30.957Z,12.40
2023-04-02T14:15:33.256Z,12.30
2023-04-02T14:20:59.899Z,12.30
2023-04-02T14:31:23.035Z,12.20
2023-04-02T14:36:35.165Z,12.00
2023-04-02T14:41:37.111Z,12.00
2023-04-02T14:46:39.782Z,12.00
2023-04-02T14:51:44.802Z,12.00
2023-04-02T14:56:55.406Z,11.90
2023-04-02T15:02:07.378Z,11.80
2023-04-02T15:07:18.111Z,11.80
2023-04-02T15:12:23.535Z,11.70
2023-04-02T15:17:25.733Z,11.60
2023-04-02T15:22:30.870Z,11.60
2023-04-02T15:27:52.641Z,11.50
2023-04-02T15:32:57.080Z,11.40
2023-04-02T15:38:11.996Z,11.30
2023-04-02T15:43:38.096Z,11.30
2023-04-02T15:48:59.934Z,11.30
2023-04-02T15:54:07.798Z,11.30
2023-04-02T15:59:37.398Z,11.20
2023-04-02T16:04:42.415Z,11.10
2023-04-02T16:09:53.653Z,11.10
2023-04-02T16:14:59.208Z,11.10
2023-04-02T16:20:16.884Z,11.10
2023-04-02T16:25:22.204Z,11.00
2023-04-02T16:30:30.549Z,11.00
2023-04-02T16:35:43.592Z,11.00
2023-04-02T16:41:07.043Z,11.00
2023-04-02T16:46:20.349Z,10.90
2023-04-02T16:51:47.652Z,10.80
2023-04-02T16:57:03.175Z,10.80
2023-04-02T17:02:23.452Z,10.80
2023-04-02T17:07:25.664Z,10.70
2023-04-02T17:12:44.698Z,10.70
2023-04-02T17:17:48.711Z,10.80
2023-04-02T17:22:51.784Z,10.50
2023-04-02T17:27:55.642Z,10.50
2023-04-02T17:32:57.892Z,10.40
2023-04-02T17:38:19.843Z,10.40
2023-04-02T17:43:22.514Z,10.30
2023-04-02T17:48:34.407Z,10.20
2023-04-02T17:53:43.324Z,10.10
2023-04-02T17:59:07.365Z,10.10
2023-04-02T18:09:29.637Z,10.10
2023-04-02T18:19:40.990Z,10.00
2023-04-02T18:24:49.362Z,9.90
2023-04-02T18:29:58.331Z,9.90
2023-04-02T18:35:05.920Z,9.90
2023-04-02T18:40:13.649Z,9.80
2023-04-02T18:45:21.470Z,9.80
2023-04-02T18:50:27.717Z,9.70
2023-04-02T18:55:31.855Z,9.70
2023-04-02T19:00:36.409Z,9.70
2023-04-02T19:05:44.686Z,9.70
2023-04-02T19:10:50.287Z,9.70
2023-04-02T19:15:52.313Z,9.70
2023-04-02T19:20:58.492Z,9.70
2023-04-02T19:26:22.743Z,9.70
2023-04-02T19:31:41.184Z,9.70
2023-04-02T19:36:46.977Z,9.70
2023-04-02T19:41:53.505Z,9.70
2023-04-02T19:46:55.929Z,9.70
2023-04-02T19:51:58.304Z,9.70
2023-04-02T19:57:01.353Z,9.70
2023-04-02T20:02:07.066Z,9.70
2023-04-02T20:07:09.181Z,9.70
2023-04-02T20:12:11.563Z,9.70
2023-04-02T20:17:13.613Z,9.70
2023-04-02T20:22:15.898Z,9.60
2023-04-02T20:27:18.764Z,9.60
2023-04-02T20:32:21.624Z,9.50
2023-04-02T20:37:23.940Z,9.50
2023-04-02T20:42:26.391Z,9.50
2023-04-02T20:47:28.460Z,9.50
2023-04-02T20:52:33.109Z,9.50
2023-04-02T20:57:35.675Z,9.60
2023-04-02T21:02:38.098Z,9.60
2023-04-02T21:07:40.190Z,9.60
2023-04-02T21:12:42.177Z,9.60
2023-04-02T21:17:44.865Z,9.60
2023-04-02T21:22:47.637Z,9.60
2023-04-02T21:27:49.727Z,9.70
2023-04-02T21:32:51.844Z,9.70
2023-04-02T21:37:53.891Z,9.60
2023-04-02T21:42:55.978Z,9.60
2023-04-02T21:47:58.192Z,9.70
2023-04-02T21:53:00.533Z,9.70
2023-04-02T21:58:03.232Z,9.70
2023-04-02T22:03:05.659Z,9.70
2023-04-02T22:08:07.746Z,9.60
2023-04-02T22:13:09.769Z,9.60
2023-04-02T22:18:11.980Z,9.60
2023-04-02T22:28:18.161Z,9.60
2023-04-02T22:33:20.455Z,9.60
2023-04-02T22:38:22.485Z,9.50
2023-04-02T22:43:24.554Z,9.50
2023-04-02T22:48:26.720Z,9.50
2023-04-02T22:53:28.756Z,9.50
2023-04-02T22:58:30.884Z,9.50
2023-04-02T23:03:34.244Z,9.50
2023-04-02T23:13:39.170Z,9.50
2023-04-02T23:18:41.835Z,9.50
2023-04-02T23:28:46.340Z,9.40
2023-04-02T23:33:51.163Z,9.30
2023-04-02T23:38:55.319Z,9.20
2023-04-02T23:43:58.267Z,9.00
2023-04-02T23:49:00.820Z,8.90
2023-04-02T23:54:05.148Z,8.70
2023-04-02T23:59:07.320Z,8.50
